.
WxDataArchive / Data Records for 2009-04-09
2009-04-08 April 2009 2009-04-10

Data Records for Thursday, 09 April 2009

Time	Temp	Chill	HIndex	Humid	Dewpt	 Wind 	HiWind	WindDir	Rain 	Barom 
-----	----	-----	------	-----	-----	------	------	-------	-----	----- 
00:00	33.5	33.5	33.5	73	25.8	0	0	---	0.00	29.789 
00:05	33.4	33.4	33.4	73	25.7	0	0	---	0.00	29.786 
00:10	33.5	33.5	33.5	73	25.8	0	0	---	0.00	29.789 
00:15	33.4	33.4	33.4	73	25.7	0	0	---	0.00	29.790 
00:20	33.4	33.4	33.4	73	25.7	0	0	---	0.00	29.791 
00:25	33.1	33.1	33.1	74	25.7	0	0	---	0.00	29.792 
00:30	33.1	33.1	33.1	74	25.7	0	0	---	0.00	29.793 
00:35	32.9	32.9	32.9	74	25.5	0	0	---	0.00	29.794 
00:40	32.8	32.8	32.8	75	25.8	0	0	---	0.00	29.795 
00:45	32.7	32.7	32.7	75	25.7	0	0	---	0.00	29.795 
00:50	32.7	32.7	32.7	76	26.0	0	0	---	0.00	29.797 
00:55	32.7	32.7	32.7	76	26.0	0	0	---	0.00	29.797 
01:00	32.7	32.7	32.7	76	26.0	0	0	---	0.00	29.797 
01:05	32.5	32.5	32.5	77	26.1	0	0	---	0.00	29.797 
01:10	32.4	32.4	32.4	77	26.0	0	0	---	0.00	29.798 
01:15	32.2	32.2	32.2	77	25.8	0	0	---	0.00	29.798 
01:20	32.1	32.1	32.1	77	25.7	0	0	---	0.00	29.798 
01:25	31.9	31.9	31.9	78	25.8	0	0	---	0.00	29.798 
01:30	31.9	31.9	31.9	78	25.8	0	0	---	0.00	29.798 
01:35	31.8	31.8	31.8	78	25.7	0	0	---	0.00	29.798 
01:40	31.8	31.8	31.8	78	25.7	0	0	---	0.00	29.799 
01:45	31.6	31.6	31.6	78	25.5	0	0	---	0.00	29.799 
01:50	31.5	31.5	31.5	78	25.4	0	0	---	0.00	29.799 
01:55	31.3	31.3	31.3	79	25.6	0	0	---	0.00	29.799 
02:00	31.2	31.2	31.2	79	25.5	0	0	---	0.00	29.800 
02:05	31.3	31.3	31.3	80	25.9	0	0	---	0.00	29.802 
02:10	31.3	31.3	31.3	80	25.9	0	0	---	0.00	29.802 
02:15	31.5	31.5	31.5	81	26.4	0	0	---	0.00	29.800 
02:20	31.6	31.6	31.6	80	26.2	0	0	---	0.00	29.800 
02:25	31.6	31.6	31.6	80	26.2	0	0	---	0.00	29.801 
02:30	31.9	31.9	31.9	81	26.7	0	0	---	0.00	29.801 
02:35	32.1	32.1	32.1	80	26.6	0	0	---	0.00	29.801 
02:40	32.5	32.5	32.5	81	27.3	0	1	225	0.00	29.803 
02:45	33.1	33.1	33.1	80	27.6	0	0	---	0.00	29.806 
02:50	33.7	33.7	33.7	79	27.9	0	1	225	0.00	29.806 
02:55	34.1	34.1	34.1	77	27.7	0	0	---	0.00	29.804 
03:00	34.6	34.6	34.6	76	27.8	0	0	---	0.00	29.805 
03:05	34.6	34.6	34.6	76	27.8	0	0	---	0.00	29.803 
03:10	34.6	34.6	34.6	75	27.5	0	0	---	0.00	29.804 
03:15	34.6	34.6	34.6	75	27.5	0	0	---	0.00	29.807 
03:20	34.6	34.6	34.6	75	27.5	0	1	225	0.00	29.808 
03:25	34.9	34.9	34.9	75	27.8	0	1	225	0.00	29.809 
03:30	35.0	35.0	35.0	74	27.6	0	1	225	0.00	29.810 
03:35	35.2	35.2	35.2	74	27.8	0	1	225	0.00	29.810 
03:40	35.3	35.3	35.3	74	27.9	0	1	225	0.00	29.812 
03:45	35.5	35.5	35.5	74	28.0	0	1	225	0.00	29.812 
03:50	35.5	35.5	35.5	74	28.0	0	1	225	0.00	29.813 
03:55	35.6	35.6	35.6	74	28.1	0	1	225	0.00	29.814 
04:00	35.6	35.6	35.6	73	27.8	0	1	225	0.00	29.814 
04:05	35.5	35.5	35.5	73	27.7	0	0	---	0.00	29.815 
04:10	35.3	35.3	35.3	74	27.9	0	1	225	0.00	29.817 
04:15	35.5	35.5	35.5	74	28.0	0	1	225	0.00	29.818 
04:20	35.5	35.5	35.5	74	28.0	0	1	225	0.00	29.820 
04:25	35.6	35.6	35.6	73	27.8	0	1	225	0.00	29.820 
04:30	35.5	35.5	35.5	73	27.7	0	0	---	0.00	29.820 
04:35	35.2	35.2	35.2	74	27.8	0	1	225	0.00	29.824 
04:40	35.0	35.0	35.0	74	27.6	0	1	225	0.00	29.828 
04:45	35.2	35.2	35.2	75	28.1	0	1	225	0.00	29.829 
04:50	35.3	35.3	35.3	75	28.2	0	1	225	0.00	29.829 
04:55	35.5	35.5	35.5	74	28.0	0	1	225	0.00	29.828 
05:00	35.5	35.5	35.5	74	28.0	0	1	225	0.00	29.829 
05:05	35.3	35.3	35.3	74	27.9	0	1	225	0.00	29.832 
05:10	35.2	35.2	35.2	74	27.8	0	0	---	0.00	29.834 
05:15	34.9	34.9	34.9	74	27.5	0	1	225	0.00	29.836 
05:20	34.7	34.7	34.7	75	27.6	0	0	---	0.00	29.836 
05:25	34.3	34.3	34.3	75	27.2	0	0	---	0.00	29.835 
05:30	34.0	34.0	34.0	75	26.9	0	0	---	0.00	29.834 
05:35	33.5	33.5	33.5	75	26.4	0	0	---	0.00	29.834 
05:40	33.1	33.1	33.1	76	26.4	0	0	---	0.00	29.835 
05:45	32.5	32.5	32.5	76	25.8	0	0	---	0.00	29.836 
05:50	32.1	32.1	32.1	77	25.7	0	0	---	0.00	29.837 
05:55	31.8	31.8	31.8	79	26.0	0	0	---	0.00	29.838 
06:00	31.3	31.3	31.3	79	25.6	0	0	---	0.00	29.840 
06:05	31.0	31.0	31.0	80	25.6	0	0	---	0.00	29.846 
06:10	30.7	30.7	30.7	81	25.6	0	0	---	0.00	29.846 
06:15	30.4	30.4	30.4	81	25.3	0	0	---	0.00	29.847 
06:20	30.1	30.1	30.1	82	25.3	0	0	---	0.00	29.850 
06:25	30.0	30.0	30.0	83	25.5	0	0	---	0.00	29.852 
06:30	29.8	29.8	29.8	84	25.6	0	0	---	0.00	29.852 
06:35	29.8	29.8	29.8	84	25.6	0	0	---	0.00	29.853 
06:40	29.7	29.7	29.7	84	25.5	0	0	---	0.00	29.853 
06:45	29.8	29.8	29.8	84	25.6	0	0	---	0.00	29.854 
06:50	29.8	29.8	29.8	85	25.9	0	0	---	0.00	29.854 
06:55	30.1	30.1	30.1	86	26.4	0	0	---	0.00	29.859 
07:00	30.7	30.7	30.7	86	27.0	0	0	---	0.00	29.860 
07:05	31.5	31.5	31.5	87	28.1	0	0	---	0.00	29.865 
07:10	32.4	32.4	32.4	87	29.0	0	0	---	0.00	29.865 
07:15	33.7	33.7	33.7	87	30.3	0	0	---	0.00	29.865 
07:20	34.9	34.9	34.9	85	30.9	0	0	---	0.00	29.864 
07:25	36.0	36.0	36.0	83	31.3	0	0	---	0.00	29.863 
07:30	37.3	37.3	37.3	80	31.7	0	1	225	0.00	29.864 
07:35	38.5	38.5	38.5	78	32.2	0	0	---	0.00	29.862 
07:40	39.5	39.5	39.5	74	31.9	0	1	225	0.00	29.862 
07:45	40.3	40.3	40.3	71	31.7	0	2	225	0.00	29.861 
07:50	41.2	41.2	41.2	69	31.8	0	3	68	0.00	29.862 
07:55	41.8	41.8	41.8	67	31.7	0	2	248	0.00	29.860 
08:00	42.3	42.3	42.3	66	31.8	1	3	248	0.00	29.861 
08:05	42.8	42.8	42.8	64	31.5	1	4	248	0.00	29.862 
08:10	43.3	43.3	43.3	64	32.0	0	2	248	0.00	29.861 
08:15	43.9	43.9	43.9	63	32.1	0	2	248	0.00	29.865 
08:20	44.5	44.5	44.5	62	32.3	0	3	248	0.00	29.867 
08:25	45.2	45.2	45.2	62	33.0	0	1	248	0.00	29.870 
08:30	45.7	45.7	45.7	59	32.2	1	3	248	0.00	29.868 
08:35	46.1	46.1	46.1	59	32.6	0	2	248	0.00	29.867 
08:40	46.4	46.4	46.4	58	32.4	0	2	248	0.00	29.867 
08:45	46.7	46.7	46.7	58	32.7	0	2	248	0.00	29.864 
08:50	47.1	47.1	47.1	57	32.7	0	2	248	0.00	29.867 
08:55	47.6	47.6	47.6	58	33.6	0	2	248	0.00	29.869 
09:00	48.2	48.2	48.2	58	34.1	0	1	248	0.00	29.870 
09:05	48.6	48.6	48.6	54	32.7	1	3	248	0.00	29.872 
09:10	48.9	48.9	48.9	54	33.0	1	3	270	0.00	29.873 
09:15	49.4	49.4	49.4	54	33.5	1	3	248	0.00	29.874 
09:20	49.8	49.8	49.8	52	32.9	1	2	248	0.00	29.876 
09:25	50.4	50.4	50.4	50	32.5	1	3	248	0.00	29.878 
09:30	50.7	50.7	50.7	51	33.2	1	3	248	0.00	29.880 
09:35	50.8	50.8	50.8	49	32.3	1	4	248	0.00	29.882 
09:40	51.0	51.0	51.0	47	31.5	1	4	248	0.00	29.885 
09:45	51.6	51.6	51.6	48	32.6	1	3	248	0.00	29.886 
09:50	52.2	52.2	52.2	46	32.1	1	2	248	0.00	29.886 
09:55	52.9	52.9	52.9	45	32.1	1	5	248	0.00	29.884 
10:00	53.2	53.2	53.2	46	33.0	1	4	248	0.00	29.884 
10:05	53.5	53.5	53.5	45	32.7	1	3	248	0.00	29.891 
10:10	53.9	53.9	53.9	42	31.3	1	2	248	0.00	29.890 
10:15	53.9	53.9	53.9	43	31.9	1	5	248	0.00	29.891 
10:20	53.8	53.8	53.8	38	28.8	2	6	248	0.00	29.892 
10:25	53.8	53.8	53.8	39	29.4	2	5	248	0.00	29.892 
10:30	53.8	53.8	53.8	39	29.4	2	3	270	0.00	29.893 
10:35	54.4	54.4	54.4	43	32.4	1	5	248	0.00	29.893 
10:40	54.2	54.2	54.2	36	27.8	3	5	270	0.00	29.893 
10:45	54.2	54.2	54.2	36	27.8	2	7	270	0.00	29.895 
10:50	54.4	54.4	54.4	35	27.3	2	10	248	0.00	29.894 
10:55	54.5	54.5	54.5	32	25.3	2	7	248	0.00	29.893 
11:00	54.7	54.7	54.7	31	24.7	2	6	248	0.00	29.890 
11:05	54.8	54.8	54.8	28	22.3	2	6	248	0.00	29.892 
11:10	54.8	54.8	54.8	29	23.2	3	7	248	0.00	29.891 
11:15	54.8	54.8	54.8	30	24.0	3	8	248	0.00	29.889 
11:20	54.8	54.8	54.8	31	24.8	3	13	248	0.00	29.887 
11:25	54.8	54.8	54.8	30	24.0	3	10	248	0.00	29.890 
11:30	55.3	55.3	55.3	31	25.2	1	4	248	0.00	29.891 
11:35	55.9	55.9	55.9	30	24.9	2	9	270	0.00	29.888 
11:40	55.7	55.7	55.7	30	24.8	3	8	248	0.00	29.889 
11:45	56.0	56.0	56.0	30	25.0	2	5	248	0.00	29.889 
11:50	56.2	56.2	56.2	28	23.5	3	10	248	0.00	29.890 
11:55	56.5	56.5	56.5	33	27.7	2	6	270	0.00	29.890 
12:00	56.5	56.5	56.5	29	24.6	3	7	270	0.00	29.890 
12:05	56.6	56.6	56.6	33	27.8	2	6	248	0.00	29.890 
12:10	56.9	56.9	56.9	31	26.6	2	7	270	0.00	29.889 
12:15	56.9	56.9	56.9	30	25.8	2	4	248	0.00	29.888 
12:20	57.0	57.0	57.0	29	25.1	2	5	270	0.00	29.888 
12:25	57.0	57.0	57.0	31	26.7	1	6	338	0.00	29.884 
12:30	57.2	57.2	57.2	29	25.2	2	5	248	0.00	29.885 
12:35	57.5	57.5	57.5	29	25.5	3	7	248	0.00	29.885 
12:40	57.2	57.2	57.2	27	23.5	3	7	292	0.00	29.888 
12:45	57.3	57.3	57.3	29	25.3	2	5	270	0.00	29.886 
12:50	57.5	57.5	57.5	28	24.7	2	6	248	0.00	29.885 
12:55	57.6	57.6	57.6	32	28.0	1	7	248	0.00	29.886 
13:00	57.8	57.8	57.8	28	24.9	2	7	292	0.00	29.885 
13:05	57.8	57.8	57.8	28	24.9	2	6	248	0.00	29.888 
13:10	57.5	57.5	57.5	27	23.8	2	7	338	0.00	29.883 
13:15	57.5	57.5	57.5	29	25.5	2	6	270	0.00	29.885 
13:20	57.6	57.6	57.6	25	22.0	4	7	248	0.00	29.882 
13:25	58.0	58.0	58.0	27	24.2	1	7	248	0.00	29.880 
13:30	58.3	58.3	58.3	27	24.5	1	5	270	0.00	29.881 
13:35	58.6	58.6	58.6	28	25.6	2	7	270	0.00	29.881 
13:40	59.2	59.2	59.2	31	28.6	2	6	248	0.00	29.876 
13:45	59.2	59.2	59.2	25	23.4	2	5	248	0.00	29.876 
13:50	58.7	58.7	58.7	26	23.9	1	4	292	0.00	29.875 
13:55	58.7	58.7	58.7	25	23.0	2	10	270	0.00	29.877 
14:00	59.0	59.0	59.0	26	24.2	2	5	270	0.00	29.879 
14:05	59.2	59.2	59.2	29	27.0	1	3	248	0.00	29.876 
14:10	59.3	59.3	59.3	25	23.5	2	6	248	0.00	29.875 
14:15	59.0	59.0	59.0	25	23.2	3	6	270	0.00	29.874 
14:20	59.0	59.0	59.0	26	24.2	1	3	225	0.00	29.874 
14:25	58.9	58.9	58.9	27	25.0	2	4	292	0.00	29.872 
14:30	59.3	59.3	59.3	26	24.4	2	5	225	0.00	29.871 
14:35	59.5	59.5	59.5	25	23.7	2	5	248	0.00	29.871 
14:40	59.2	59.2	59.2	25	23.4	1	4	315	0.00	29.867 
14:45	59.2	59.2	59.2	29	27.0	1	4	338	0.00	29.866 
14:50	59.6	59.6	59.6	28	26.5	2	5	248	0.00	29.865 
14:55	59.6	59.6	59.6	25	23.7	2	6	248	0.00	29.864 
15:00	59.5	59.5	59.5	28	26.4	2	6	270	0.00	29.858 
15:05	59.5	59.5	59.5	26	24.6	2	5	270	0.00	29.859 
15:10	59.6	59.6	59.6	25	23.7	2	5	248	0.00	29.858 
15:15	59.3	59.3	59.3	25	23.5	1	4	338	0.00	29.857 
15:20	59.3	59.3	59.3	25	23.5	1	4	338	0.00	29.856 
15:25	59.3	59.3	59.3	25	23.5	2	5	315	0.00	29.856 
15:30	59.6	59.6	59.6	24	22.8	2	5	248	0.00	29.855 
15:35	59.6	59.6	59.6	24	22.8	2	6	270	0.00	29.855 
15:40	59.3	59.3	59.3	24	22.5	2	7	270	0.00	29.859 
15:45	59.2	59.2	59.2	25	23.4	1	2	270	0.00	29.860 
15:50	59.2	59.2	59.2	24	22.4	1	3	270	0.00	29.859 
15:55	59.5	59.5	59.5	24	22.7	1	5	248	0.00	29.857 
16:00	59.3	59.3	59.3	23	21.5	3	8	270	0.00	29.861 
16:05	59.3	59.3	59.3	23	21.5	1	3	248	0.00	29.860 
16:10	59.5	59.5	59.5	25	23.7	2	6	248	0.00	29.858 
16:15	59.3	59.3	59.3	24	22.5	3	6	248	0.00	29.856 
16:20	58.9	58.9	58.9	23	21.2	1	4	248	0.00	29.855 
16:25	58.7	58.7	58.7	26	23.9	1	4	22	0.00	29.855 
16:30	58.7	58.7	58.7	25	23.0	0	2	0	0.00	29.856 
16:35	58.7	58.7	58.7	24	22.0	1	5	248	0.00	29.855 
16:40	58.6	58.6	58.6	25	22.9	2	7	248	0.00	29.857 
16:45	58.1	58.1	58.1	24	21.5	1	2	248	0.00	29.858 
16:50	57.8	57.8	57.8	25	22.2	0	2	270	0.00	29.859 
16:55	57.6	57.6	57.6	23	20.1	0	2	270	0.00	29.861 
17:00	57.5	57.5	57.5	24	21.0	1	4	248	0.00	29.862 
17:05	57.3	57.3	57.3	24	20.8	1	4	248	0.00	29.869 
17:10	57.5	57.5	57.5	25	22.0	2	6	248	0.00	29.872 
17:15	57.5	57.5	57.5	25	22.0	1	3	248	0.00	29.874 
17:20	57.3	57.3	57.3	25	21.8	1	2	248	0.00	29.874 
17:25	57.2	57.2	57.2	24	20.7	0	2	248	0.00	29.876 
17:30	57.0	57.0	57.0	25	21.5	0	2	248	0.00	29.877 
17:35	57.0	57.0	57.0	25	21.5	1	3	248	0.00	29.878 
17:40	56.9	56.9	56.9	25	21.5	2	4	248	0.00	29.878 
17:45	56.7	56.7	56.7	25	21.3	1	2	248	0.00	29.877 
17:50	56.6	56.6	56.6	25	21.2	1	3	248	0.00	29.877 
17:55	56.6	56.6	56.6	26	22.1	0	2	248	0.00	29.876 
18:00	56.5	56.5	56.5	25	21.1	0	2	248	0.00	29.878 
18:05	56.3	56.3	56.3	26	21.9	0	2	248	0.00	29.879 
18:10	56.3	56.3	56.3	26	21.9	0	1	248	0.00	29.880 
18:15	56.2	56.2	56.2	26	21.8	0	1	248	0.00	29.881 
18:20	55.9	55.9	55.9	27	22.4	0	1	270	0.00	29.881 
18:25	55.7	55.7	55.7	26	21.4	0	2	248	0.00	29.882 
18:30	55.6	55.6	55.6	26	21.3	0	1	248	0.00	29.883 
18:35	55.6	55.6	55.6	27	22.2	0	3	248	0.00	29.886 
18:40	55.4	55.4	55.4	27	22.0	0	3	248	0.00	29.887 
18:45	55.3	55.3	55.3	26	21.0	0	2	248	0.00	29.889 
18:50	55.1	55.1	55.1	27	21.7	0	1	248	0.00	29.890 
18:55	55.0	55.0	55.0	27	21.6	0	2	248	0.00	29.892 
19:00	54.8	54.8	54.8	28	22.3	0	0	---	0.00	29.892 
19:05	54.5	54.5	54.5	27	21.2	0	0	---	0.00	29.884 
19:10	54.2	54.2	54.2	28	21.8	0	0	---	0.00	29.885 
19:15	53.9	53.9	53.9	28	21.6	0	0	---	0.00	29.885 
19:20	53.6	53.6	53.6	27	20.4	0	0	---	0.00	29.885 
19:25	53.3	53.3	53.3	28	21.0	0	0	---	0.00	29.885 
19:30	52.9	52.9	52.9	30	22.3	0	0	---	0.00	29.891 
19:35	52.6	52.6	52.6	30	22.1	0	0	---	0.00	29.894 
19:40	52.2	52.2	52.2	30	21.7	0	0	---	0.00	29.895 
19:45	51.9	51.9	51.9	32	23.0	0	0	---	0.00	29.894 
19:50	51.4	51.4	51.4	32	22.5	0	0	---	0.00	29.894 
19:55	51.1	51.1	51.1	33	23.0	0	0	---	0.00	29.897 
20:00	50.8	50.8	50.8	34	23.5	0	0	---	0.00	29.900 
20:05	50.5	50.5	50.5	35	23.9	0	0	---	0.00	29.896 
20:10	50.4	50.4	50.4	37	25.1	0	0	---	0.00	29.897 
20:15	50.1	50.1	50.1	39	26.1	0	0	---	0.00	29.898 
20:20	49.9	49.9	49.9	41	27.1	0	0	---	0.00	29.899 
20:25	49.6	49.6	49.6	42	27.5	0	0	---	0.00	29.901 
20:30	49.5	49.5	49.5	42	27.4	0	0	---	0.00	29.902 
20:35	49.2	49.2	49.2	43	27.7	0	0	---	0.00	29.904 
20:40	49.1	49.1	49.1	44	28.1	0	0	---	0.00	29.907 
20:45	48.9	48.9	48.9	45	28.5	0	0	---	0.00	29.912 
20:50	48.8	48.8	48.8	45	28.4	0	0	---	0.00	29.913 
20:55	48.6	48.6	48.6	44	27.7	0	0	---	0.00	29.915 
21:00	48.5	48.5	48.5	46	28.7	0	0	---	0.00	29.916 
21:05	48.3	48.3	48.3	47	29.0	0	0	---	0.00	29.912 
21:10	48.0	48.0	48.0	47	28.7	0	0	---	0.00	29.912 
21:15	48.2	48.2	48.2	41	25.6	0	2	248	0.00	29.914 
21:20	48.8	48.8	48.8	40	25.6	0	2	90	0.00	29.912 
21:25	49.1	49.1	49.1	41	26.4	0	1	338	0.00	29.913 
21:30	49.2	49.2	49.2	41	26.5	0	1	338	0.00	29.912 
21:35	49.1	49.1	49.1	40	25.8	0	1	338	0.00	29.912 
21:40	49.1	49.1	49.1	40	25.8	0	1	338	0.00	29.913 
21:45	48.9	48.9	48.9	41	26.2	0	1	338	0.00	29.912 
21:50	48.8	48.8	48.8	40	25.6	0	1	338	0.00	29.912 
21:55	48.6	48.6	48.6	40	25.4	0	1	338	0.00	29.911 
22:00	48.5	48.5	48.5	41	25.9	0	1	338	0.00	29.911 
22:05	48.2	48.2	48.2	41	25.6	0	1	338	0.00	29.912 
22:10	48.0	48.0	48.0	42	26.0	0	1	338	0.00	29.911 
22:15	47.9	47.9	47.9	40	24.8	0	2	338	0.00	29.912 
22:20	47.7	47.7	47.7	40	24.6	0	1	338	0.00	29.913 
22:25	47.7	47.7	47.7	41	25.2	0	1	338	0.00	29.914 
22:30	47.7	47.7	47.7	40	24.6	0	1	338	0.00	29.915 
22:35	47.7	47.7	47.7	40	24.6	0	1	338	0.00	29.915 
22:40	47.7	47.7	47.7	41	25.2	0	1	338	0.00	29.913 
22:45	47.6	47.6	47.6	42	25.7	0	1	338	0.00	29.914 
22:50	47.4	47.4	47.4	42	25.5	0	0	---	0.00	29.914 
22:55	47.3	47.3	47.3	42	25.4	0	0	---	0.00	29.914 
23:00	47.1	47.1	47.1	42	25.2	0	0	---	0.00	29.916 
23:05	47.0	47.0	47.0	42	25.1	0	1	338	0.00	29.916 
23:10	46.8	46.8	46.8	42	24.9	0	1	338	0.00	29.916 
23:15	46.8	46.8	46.8	43	25.5	0	0	---	0.00	29.916 
23:20	46.7	46.7	46.7	44	26.0	0	0	---	0.00	29.916 
23:25	46.5	46.5	46.5	43	25.2	0	1	338	0.00	29.916 
23:30	46.5	46.5	46.5	43	25.2	0	1	338	0.00	29.914 
23:35	46.4	46.4	46.4	45	26.2	0	1	338	0.00	29.914 
23:40	46.4	46.4	46.4	44	25.7	0	0	---	0.00	29.914 
23:45	46.4	46.4	46.4	43	25.1	0	1	338	0.00	29.916 
23:50	46.4	46.4	46.4	44	25.7	0	1	338	0.00	29.916 
23:55	46.2	46.2	46.2	44	25.5	0	1	338	0.00	29.916 

CoCoRaHS
IN-AL-39
A2 Web Hosting
Creative Commons License
GoDaddy
search engine by freefind advanced

loaded 2018-11-17 23:49:30 • last modified 2010-11-18 10:43:29
Privacy PolicyDisclaimer
• wx.awcolley.com is powered by PmWiki v.2002016 •
• all content (unless otherwise noted) © 2018 A W Colley